createdAt,value
2019-01-20T00:00:16.510Z,13.43
2019-01-20T00:02:44.845Z,29.10
2019-01-20T00:05:32.578Z,16.47
2019-01-20T00:08:00.841Z,19.00
2019-01-20T00:10:29.118Z,29.33
2019-01-20T00:12:57.355Z,30.10
2019-01-20T00:15:25.692Z,27.80
2019-01-20T00:17:54.017Z,25.37
2019-01-20T00:20:22.356Z,23.90
2019-01-20T00:22:50.701Z,33.70
2019-01-20T00:25:18.960Z,22.43
2019-01-20T00:27:47.219Z,22.63
2019-01-20T00:30:17.099Z,20.80
2019-01-20T00:32:45.367Z,21.47
2019-01-20T00:35:13.623Z,34.77
2019-01-20T00:37:41.866Z,22.93
2019-01-20T00:40:13.450Z,30.80
2019-01-20T00:42:41.776Z,12.83
2019-01-20T00:45:15.603Z,33.53
2019-01-20T00:47:43.861Z,18.20
2019-01-20T00:50:14.232Z,27.57
2019-01-20T00:52:42.486Z,27.40
2019-01-20T00:55:13.280Z,29.10
2019-01-20T00:57:42.421Z,23.77
2019-01-20T01:00:20.380Z,30.00
2019-01-20T01:02:48.638Z,20.77
2019-01-20T01:05:18.134Z,27.97
2019-01-20T01:07:46.395Z,25.97
2019-01-20T01:10:15.010Z,30.27
2019-01-20T01:12:43.273Z,28.33
2019-01-20T01:15:12.095Z,29.77
2019-01-20T01:17:40.335Z,31.63
2019-01-20T01:20:13.881Z,30.77
2019-01-20T01:22:42.128Z,20.83
2019-01-20T01:25:11.940Z,20.10
2019-01-20T01:27:40.174Z,28.17
2019-01-20T01:30:14.533Z,21.37
2019-01-20T01:32:42.787Z,21.40
2019-01-20T01:35:11.034Z,29.00
2019-01-20T01:37:39.304Z,30.30
2019-01-20T01:40:12.558Z,30.10
2019-01-20T01:42:40.830Z,23.97
2019-01-20T01:45:12.893Z,28.93
2019-01-20T01:47:41.221Z,32.40
2019-01-20T01:50:10.423Z,27.33
2019-01-20T01:52:38.669Z,31.97
2019-01-20T01:55:08.584Z,28.80
2019-01-20T01:57:36.851Z,20.53
2019-01-20T02:00:11.736Z,26.67
2019-01-20T02:02:39.995Z,27.73
2019-01-20T02:05:09.388Z,28.33
2019-01-20T02:07:37.657Z,30.47
2019-01-20T02:10:09.242Z,27.97
2019-01-20T02:12:39.198Z,27.17
2019-01-20T02:15:09.403Z,27.70
2019-01-20T02:17:37.639Z,24.37
2019-01-20T02:20:09.051Z,25.37
2019-01-20T02:22:37.286Z,24.27
2019-01-20T02:25:05.627Z,20.90
2019-01-20T02:27:33.867Z,26.63
2019-01-20T02:30:02.152Z,29.47
2019-01-20T02:32:30.448Z,24.73
2019-01-20T02:34:58.715Z,21.67
2019-01-20T02:37:26.962Z,22.17
2019-01-20T02:39:55.275Z,27.73
2019-01-20T02:42:23.558Z,19.37
2019-01-20T02:44:51.808Z,10.83
2019-01-20T02:47:20.062Z,16.10
2019-01-20T02:49:48.387Z,12.43
2019-01-20T02:52:16.675Z,24.00
2019-01-20T02:54:44.905Z,21.33
2019-01-20T02:57:13.163Z,24.40
2019-01-20T02:59:41.419Z,23.60
2019-01-20T03:02:09.663Z,27.70
2019-01-20T03:04:37.914Z,26.73
2019-01-20T03:07:06.157Z,30.30
2019-01-20T03:09:34.411Z,28.90
2019-01-20T03:12:03.659Z,30.30
2019-01-20T03:14:32.199Z,16.93
2019-01-20T03:17:00.437Z,26.47
2019-01-20T03:19:28.778Z,30.57
2019-01-20T03:21:57.029Z,27.27
2019-01-20T03:24:25.284Z,12.77
2019-01-20T03:26:53.551Z,29.40
2019-01-20T03:29:21.815Z,27.53
2019-01-20T03:31:50.068Z,29.57
2019-01-20T03:34:18.330Z,28.93
2019-01-20T03:36:46.585Z,28.63
2019-01-20T03:39:14.828Z,31.87
2019-01-20T03:41:43.077Z,14.27
2019-01-20T03:44:11.350Z,16.13
2019-01-20T03:46:39.590Z,16.50
2019-01-20T03:49:07.868Z,13.03
2019-01-20T03:51:36.103Z,24.90
2019-01-20T03:54:04.430Z,28.70
2019-01-20T03:56:32.687Z,24.17
2019-01-20T03:59:00.925Z,21.37
2019-01-20T04:01:29.198Z,14.10
2019-01-20T04:03:57.448Z,25.53
2019-01-20T04:06:25.702Z,28.87
2019-01-20T04:08:53.965Z,28.20
2019-01-20T04:11:22.220Z,30.93
2019-01-20T04:13:50.475Z,22.10
2019-01-20T04:16:18.719Z,18.97
2019-01-20T04:18:46.991Z,23.77
2019-01-20T04:21:15.247Z,26.37
2019-01-20T04:23:43.510Z,11.77
2019-01-20T04:26:11.779Z,26.37
2019-01-20T04:28:40.033Z,17.70
2019-01-20T04:31:08.298Z,24.67
2019-01-20T04:33:36.538Z,12.30
2019-01-20T04:36:04.777Z,24.10
2019-01-20T04:38:33.040Z,14.27
2019-01-20T04:41:01.326Z,23.77
2019-01-20T04:43:29.580Z,18.90
2019-01-20T04:45:57.843Z,8.20
2019-01-20T04:48:26.089Z,27.83
2019-01-20T04:50:54.329Z,27.90
2019-01-20T04:53:22.589Z,24.57
2019-01-20T04:55:50.845Z,25.50
2019-01-20T04:58:19.500Z,24.93
2019-01-20T05:00:47.722Z,24.10
2019-01-20T05:03:15.982Z,23.87
2019-01-20T05:05:44.231Z,9.50
2019-01-20T05:08:12.498Z,22.77
2019-01-20T05:10:40.742Z,23.43
2019-01-20T05:13:09.004Z,14.30
2019-01-20T05:15:37.260Z,25.10
2019-01-20T05:18:05.540Z,26.57
2019-01-20T05:20:33.803Z,16.53
2019-01-20T05:23:02.107Z,25.17
2019-01-20T05:25:30.356Z,7.97
2019-01-20T05:27:58.649Z,12.80
2019-01-20T05:30:26.922Z,14.30
2019-01-20T05:32:55.183Z,23.97
2019-01-20T05:35:23.430Z,25.30
2019-01-20T05:37:51.689Z,27.27
2019-01-20T05:40:20.973Z,28.40
2019-01-20T05:42:49.230Z,28.47
2019-01-20T05:45:19.525Z,28.53
2019-01-20T05:47:47.778Z,11.87
2019-01-20T05:50:16.051Z,25.80
2019-01-20T05:52:44.364Z,24.07
2019-01-20T05:55:14.601Z,27.23
2019-01-20T05:57:43.069Z,28.07
2019-01-20T06:00:16.877Z,28.57
2019-01-20T06:02:45.240Z,25.27
2019-01-20T06:05:13.562Z,29.03
2019-01-20T06:07:41.824Z,28.00
2019-01-20T06:10:12.212Z,27.02
2019-01-20T06:12:40.449Z,27.37
2019-01-20T06:15:14.215Z,30.20
2019-01-20T06:17:42.449Z,28.98
2019-01-20T06:20:10.715Z,26.77
2019-01-20T06:22:38.980Z,28.77
2019-01-20T06:25:08.550Z,27.60
2019-01-20T06:27:36.814Z,22.97
2019-01-20T06:30:08.338Z,26.90
2019-01-20T06:32:36.615Z,26.23
2019-01-20T06:35:05.593Z,18.53
2019-01-20T06:37:33.833Z,19.20
2019-01-20T06:40:02.091Z,29.47
2019-01-20T06:42:30.344Z,25.10
2019-01-20T06:44:58.611Z,29.63
2019-01-20T06:47:26.880Z,20.70
2019-01-20T06:49:55.148Z,29.40
2019-01-20T06:52:23.382Z,30.60
2019-01-20T06:54:51.642Z,29.00
2019-01-20T06:57:19.885Z,28.83
2019-01-20T06:59:48.160Z,22.77
2019-01-20T07:02:16.405Z,29.03
2019-01-20T07:04:44.646Z,18.80
2019-01-20T07:07:12.908Z,19.13
2019-01-20T07:09:41.142Z,15.73
2019-01-20T07:12:09.394Z,31.07
2019-01-20T07:14:37.641Z,32.57
2019-01-20T07:17:05.881Z,26.93
2019-01-20T07:19:34.156Z,26.40
2019-01-20T07:22:02.416Z,24.77
2019-01-20T07:24:30.669Z,20.50
2019-01-20T07:26:58.940Z,21.23
2019-01-20T07:29:27.192Z,18.40
2019-01-20T07:31:55.444Z,27.27
2019-01-20T07:34:23.721Z,25.60
2019-01-20T07:36:51.984Z,19.47
2019-01-20T07:39:20.282Z,16.33
2019-01-20T07:41:48.552Z,30.70
2019-01-20T07:44:16.796Z,25.63
2019-01-20T07:46:45.054Z,18.33
2019-01-20T07:49:13.311Z,14.90
2019-01-20T07:51:41.563Z,18.10
2019-01-20T07:54:09.819Z,11.17
2019-01-20T07:56:38.088Z,29.23
2019-01-20T07:59:06.343Z,18.63
2019-01-20T08:01:34.579Z,30.03
2019-01-20T08:04:02.835Z,30.77
2019-01-20T08:06:31.077Z,14.13
2019-01-20T08:08:59.329Z,12.23
2019-01-20T08:11:27.640Z,26.03
2019-01-20T08:13:55.896Z,25.57
2019-01-20T08:16:24.146Z,30.87
2019-01-20T08:18:52.397Z,22.73
2019-01-20T08:21:20.664Z,23.35
2019-01-20T08:23:48.938Z,31.15
2019-01-20T08:26:17.174Z,32.73
2019-01-20T08:28:45.443Z,27.67
2019-01-20T08:31:13.682Z,31.07
2019-01-20T08:33:41.946Z,27.07
2019-01-20T08:36:10.183Z,29.42
2019-01-20T08:38:38.420Z,30.08
2019-01-20T08:41:06.681Z,24.67
2019-01-20T08:43:34.940Z,32.48
2019-01-20T08:46:15.199Z,30.05
2019-01-20T08:48:43.463Z,19.32
2019-01-20T08:51:12.776Z,31.73
2019-01-20T08:53:41.033Z,32.55
2019-01-20T08:56:09.273Z,30.45
2019-01-20T08:58:37.567Z,31.65
2019-01-20T09:01:05.820Z,27.75
2019-01-20T09:03:34.062Z,33.98
2019-01-20T09:06:02.318Z,32.30
2019-01-20T09:08:30.565Z,32.25
2019-01-20T09:10:58.802Z,33.85
2019-01-20T09:13:27.117Z,29.37
2019-01-20T09:15:55.357Z,30.72
2019-01-20T09:18:23.725Z,29.32
2019-01-20T09:20:51.978Z,31.95
2019-01-20T09:23:20.236Z,30.23
2019-01-20T09:25:48.546Z,31.27
2019-01-20T09:28:16.786Z,34.13
2019-01-20T09:30:45.036Z,30.88
2019-01-20T09:33:13.367Z,31.68
2019-01-20T09:35:41.624Z,33.55
2019-01-20T09:38:09.880Z,31.87
2019-01-20T09:40:38.148Z,31.57
2019-01-20T09:43:06.413Z,30.40
2019-01-20T09:45:34.761Z,28.80
2019-01-20T09:48:03.001Z,29.77
2019-01-20T09:50:31.265Z,32.65
2019-01-20T09:52:59.519Z,31.25
2019-01-20T09:55:27.773Z,31.15
2019-01-20T09:57:56.019Z,34.43
2019-01-20T10:00:30.252Z,32.35
2019-01-20T10:02:58.505Z,31.75
2019-01-20T10:05:26.747Z,32.25
2019-01-20T10:07:55.031Z,34.13
2019-01-20T10:10:23.284Z,34.78
2019-01-20T10:12:51.626Z,32.88
2019-01-20T10:15:19.861Z,31.77
2019-01-20T10:17:48.138Z,31.70
2019-01-20T10:20:28.197Z,32.80
2019-01-20T10:22:56.474Z,34.73
2019-01-20T10:25:24.722Z,33.90
2019-01-20T10:27:52.990Z,36.35
2019-01-20T10:30:24.544Z,34.25
2019-01-20T10:32:52.888Z,32.75
2019-01-20T10:35:22.766Z,32.90
2019-01-20T10:37:51.707Z,31.93
2019-01-20T10:40:19.980Z,31.50
2019-01-20T10:42:48.249Z,30.02
2019-01-20T10:45:16.490Z,27.25
2019-01-20T10:47:44.752Z,30.37
2019-01-20T10:50:15.170Z,31.60
2019-01-20T10:52:43.440Z,33.28
2019-01-20T10:55:11.694Z,29.70
2019-01-20T10:57:39.943Z,30.75
2019-01-20T11:00:17.565Z,31.45
2019-01-20T11:02:45.802Z,30.75
2019-01-20T11:05:14.083Z,33.83
2019-01-20T11:07:42.325Z,33.92
2019-01-20T11:10:11.340Z,38.50
2019-01-20T11:12:40.938Z,42.03
2019-01-20T11:15:15.204Z,33.67
2019-01-20T11:17:43.550Z,33.45
2019-01-20T11:20:23.061Z,33.90
2019-01-20T11:22:51.293Z,33.08
2019-01-20T11:25:25.335Z,29.95
2019-01-20T11:27:53.577Z,30.90
2019-01-20T11:30:21.852Z,32.13
2019-01-20T11:32:50.113Z,34.48
2019-01-20T11:35:19.507Z,30.52
2019-01-20T11:37:48.044Z,27.07
2019-01-20T11:40:16.358Z,25.60
2019-01-20T11:42:44.652Z,31.02
2019-01-20T11:45:18.922Z,31.85
2019-01-20T11:47:47.216Z,31.82
2019-01-20T11:50:18.475Z,32.75
2019-01-20T11:52:46.711Z,30.60
2019-01-20T11:55:17.810Z,32.28
2019-01-20T11:57:46.072Z,34.90
2019-01-20T12:00:19.642Z,33.08
2019-01-20T12:02:47.928Z,33.70
2019-01-20T12:05:17.229Z,36.20
2019-01-20T12:07:45.503Z,32.03
2019-01-20T12:10:14.084Z,30.95
2019-01-20T12:12:43.968Z,31.15
2019-01-20T12:15:13.547Z,30.50
2019-01-20T12:17:41.812Z,32.75
2019-01-20T12:20:12.214Z,31.85
2019-01-20T12:22:40.446Z,30.77
2019-01-20T12:25:12.023Z,32.05
2019-01-20T12:27:40.278Z,32.03
2019-01-20T12:30:14.389Z,29.07
2019-01-20T12:32:42.652Z,30.57
2019-01-20T12:35:10.949Z,32.98
2019-01-20T12:37:39.196Z,31.73
2019-01-20T12:40:16.721Z,32.08
2019-01-20T12:42:44.991Z,34.60
2019-01-20T12:45:13.234Z,32.48
2019-01-20T12:47:41.467Z,34.75
2019-01-20T12:50:13.026Z,33.90
2019-01-20T12:52:41.300Z,33.15
2019-01-20T12:55:09.986Z,32.33
2019-01-20T12:57:38.232Z,42.62
2019-01-20T13:00:12.756Z,36.20
2019-01-20T13:02:40.990Z,34.05
2019-01-20T13:05:09.260Z,32.28
2019-01-20T13:07:37.506Z,34.60
2019-01-20T13:10:08.689Z,34.23
2019-01-20T13:12:36.917Z,34.67
2019-01-20T13:15:08.267Z,39.20
2019-01-20T13:17:36.534Z,33.20
2019-01-20T13:20:08.270Z,34.85
2019-01-20T13:22:36.521Z,33.58
2019-01-20T13:25:07.722Z,35.08
2019-01-20T13:27:35.985Z,34.40
2019-01-20T13:30:07.441Z,35.05
2019-01-20T13:32:35.698Z,37.13
2019-01-20T13:35:05.471Z,34.18
2019-01-20T13:37:33.739Z,36.25
2019-01-20T13:40:01.992Z,35.25
2019-01-20T13:42:30.244Z,34.25
2019-01-20T13:44:58.520Z,37.30
2019-01-20T13:47:26.765Z,37.25
2019-01-20T13:49:55.014Z,32.45
2019-01-20T13:52:23.257Z,37.70
2019-01-20T13:54:51.504Z,38.33
2019-01-20T13:57:19.778Z,38.30
2019-01-20T13:59:48.114Z,35.17
2019-01-20T14:02:16.367Z,34.83
2019-01-20T14:04:44.642Z,32.42
2019-01-20T14:07:12.886Z,32.78
2019-01-20T14:09:41.139Z,34.27
2019-01-20T14:12:09.408Z,33.50
2019-01-20T14:14:37.837Z,33.58
2019-01-20T14:17:06.093Z,35.00
2019-01-20T14:19:34.391Z,32.93
2019-01-20T14:22:02.619Z,32.23
2019-01-20T14:24:30.985Z,33.60
2019-01-20T14:26:59.246Z,32.73
2019-01-20T14:29:27.509Z,31.93
2019-01-20T14:31:55.779Z,33.45
2019-01-20T14:34:24.020Z,30.85
2019-01-20T14:36:52.280Z,33.33
2019-01-20T14:39:20.519Z,33.15
2019-01-20T14:41:48.815Z,31.62
2019-01-20T14:44:17.061Z,32.35
2019-01-20T14:46:45.306Z,36.03
2019-01-20T14:49:13.588Z,34.73
2019-01-20T14:51:41.859Z,35.98
2019-01-20T14:54:10.128Z,35.30
2019-01-20T14:56:38.362Z,36.05
2019-01-20T14:59:06.618Z,36.75
2019-01-20T15:01:34.862Z,33.55
2019-01-20T15:04:03.129Z,36.55
2019-01-20T15:06:31.461Z,33.75
2019-01-20T15:08:59.728Z,35.25
2019-01-20T15:11:27.988Z,33.75
2019-01-20T15:13:56.239Z,35.95
2019-01-20T15:16:24.518Z,35.80
2019-01-20T15:18:52.773Z,35.03
2019-01-20T15:21:21.021Z,35.45
2019-01-20T15:23:49.340Z,35.65
2019-01-20T15:26:17.624Z,35.88
2019-01-20T15:28:45.880Z,37.63
2019-01-20T15:31:14.147Z,35.85
2019-01-20T15:33:42.395Z,39.42
2019-01-20T15:36:10.728Z,35.98
2019-01-20T15:38:58.404Z,37.03
2019-01-20T15:41:26.662Z,37.20
2019-01-20T15:43:54.942Z,38.65
2019-01-20T15:46:23.177Z,39.40
2019-01-20T15:48:51.438Z,39.18
2019-01-20T15:51:19.678Z,39.55
2019-01-20T15:53:47.960Z,37.50
2019-01-20T15:56:16.197Z,36.58
2019-01-20T15:58:44.475Z,38.78
2019-01-20T16:01:12.732Z,39.67
2019-01-20T16:03:40.969Z,38.25
2019-01-20T16:06:09.244Z,38.17
2019-01-20T16:08:37.498Z,42.10
2019-01-20T16:11:05.757Z,41.55
2019-01-20T16:13:34.019Z,41.58
2019-01-20T16:16:02.293Z,38.23
2019-01-20T16:18:30.571Z,41.60
2019-01-20T16:20:58.816Z,43.17
2019-01-20T16:23:27.078Z,41.50
2019-01-20T16:25:55.340Z,42.20
2019-01-20T16:28:23.594Z,43.42
2019-01-20T16:30:51.855Z,43.20
2019-01-20T16:33:24.781Z,44.27
2019-01-20T16:35:50.133Z,45.30
2019-01-20T16:38:18.391Z,42.43
2019-01-20T16:40:46.648Z,41.95
2019-01-20T16:43:14.907Z,42.35
2019-01-20T16:45:43.173Z,41.68
2019-01-20T16:48:11.433Z,42.62
2019-01-20T16:50:39.676Z,42.80
2019-01-20T16:53:07.946Z,40.78
2019-01-20T16:55:36.203Z,42.62
2019-01-20T16:58:04.445Z,42.13
2019-01-20T17:00:37.911Z,43.28
2019-01-20T17:03:06.179Z,41.25
2019-01-20T17:05:34.448Z,44.40
2019-01-20T17:08:02.721Z,44.73
2019-01-20T17:10:33.417Z,44.83
2019-01-20T17:13:01.672Z,44.70
2019-01-20T17:15:39.061Z,44.03
2019-01-20T17:18:02.841Z,44.33
2019-01-20T17:20:32.748Z,43.00
2019-01-20T17:23:01.012Z,42.75
2019-01-20T17:25:29.271Z,41.23
2019-01-20T17:27:57.521Z,41.50
2019-01-20T17:30:31.784Z,42.73
2019-01-20T17:33:00.054Z,44.03
2019-01-20T17:35:28.300Z,42.13
2019-01-20T17:37:56.557Z,43.17
2019-01-20T17:40:26.812Z,40.58
2019-01-20T17:42:55.069Z,42.13
2019-01-20T17:45:28.812Z,39.90
2019-01-20T17:47:57.125Z,39.75
2019-01-20T17:50:30.887Z,42.75
2019-01-20T17:52:59.162Z,39.23
2019-01-20T17:55:27.411Z,41.35
2019-01-20T17:57:55.664Z,39.38
2019-01-20T18:00:28.302Z,39.88
2019-01-20T18:02:56.708Z,40.67
2019-01-20T18:05:25.721Z,40.20
2019-01-20T18:07:54.174Z,39.18
2019-01-20T18:10:22.419Z,40.63
2019-01-20T18:12:50.674Z,39.18
2019-01-20T18:15:23.901Z,40.30
2019-01-20T18:17:52.172Z,42.08
2019-01-20T18:20:26.290Z,41.45
2019-01-20T18:22:54.550Z,39.95
2019-01-20T18:25:22.863Z,40.92
2019-01-20T18:27:51.120Z,40.43
2019-01-20T18:30:27.667Z,38.30
2019-01-20T18:32:55.944Z,37.63
2019-01-20T18:35:25.404Z,39.00
2019-01-20T18:37:53.667Z,41.50
2019-01-20T18:40:24.207Z,41.95
2019-01-20T18:42:53.300Z,35.80
2019-01-20T18:45:26.898Z,40.83
2019-01-20T18:47:55.158Z,37.98
2019-01-20T18:50:25.827Z,41.35
2019-01-20T18:52:54.151Z,44.25
2019-01-20T18:55:22.526Z,40.52
2019-01-20T18:57:50.842Z,38.10
2019-01-20T19:00:37.182Z,37.90
2019-01-20T19:03:05.645Z,36.93
2019-01-20T19:05:34.023Z,36.53
2019-01-20T19:08:02.373Z,39.35
2019-01-20T19:10:30.915Z,37.75
2019-01-20T19:12:59.272Z,35.10
2019-01-20T19:15:27.612Z,38.05
2019-01-20T19:17:55.947Z,38.35
2019-01-20T19:20:25.498Z,39.88
2019-01-20T19:22:55.545Z,36.30
2019-01-20T19:25:23.911Z,38.20
2019-01-20T19:27:52.317Z,38.60
2019-01-20T19:30:25.354Z,38.53
2019-01-20T19:32:53.787Z,39.25
2019-01-20T19:35:22.173Z,38.05
2019-01-20T19:37:50.606Z,37.05
2019-01-20T19:40:19.102Z,37.40
2019-01-20T19:42:47.534Z,38.23
2019-01-20T19:45:20.065Z,37.80
2019-01-20T19:47:48.532Z,38.20
2019-01-20T19:50:17.765Z,39.85
2019-01-20T19:52:46.129Z,39.78
2019-01-20T19:55:20.243Z,37.98
2019-01-20T19:57:48.649Z,37.33
2019-01-20T20:00:19.176Z,38.50
2019-01-20T20:02:47.583Z,40.08
2019-01-20T20:05:17.577Z,39.30
2019-01-20T20:07:46.197Z,38.25
2019-01-20T20:10:16.955Z,38.40
2019-01-20T20:12:45.353Z,38.40
2019-01-20T20:15:16.397Z,40.33
2019-01-20T20:17:44.811Z,39.20
2019-01-20T20:20:18.201Z,40.00
2019-01-20T20:22:46.463Z,40.10
2019-01-20T20:25:16.836Z,40.80
2019-01-20T20:27:45.207Z,41.33
2019-01-20T20:30:19.377Z,39.83
2019-01-20T20:32:47.960Z,40.98
2019-01-20T20:35:16.319Z,41.90
2019-01-20T20:37:44.654Z,41.77
2019-01-20T20:40:15.884Z,43.73
2019-01-20T20:42:44.207Z,40.75
2019-01-20T20:45:17.944Z,42.50
2019-01-20T20:47:46.185Z,40.45
2019-01-20T20:50:16.076Z,45.52
2019-01-20T20:52:46.216Z,40.92
2019-01-20T20:55:14.339Z,44.45
2019-01-20T20:57:42.588Z,43.58
2019-01-20T21:00:14.226Z,44.80
2019-01-20T21:02:42.496Z,41.25
2019-01-20T21:05:10.824Z,41.80
2019-01-20T21:07:39.141Z,43.00
2019-01-20T21:10:10.807Z,44.13
2019-01-20T21:12:39.223Z,44.30
2019-01-20T21:15:10.626Z,44.33
2019-01-20T21:17:38.861Z,44.67
2019-01-20T21:20:10.441Z,45.25
2019-01-20T21:22:38.701Z,42.53
2019-01-20T21:25:09.668Z,46.92
2019-01-20T21:27:37.923Z,43.52
2019-01-20T21:30:15.427Z,44.23
2019-01-20T21:32:43.697Z,46.48
2019-01-20T21:35:11.959Z,44.48
2019-01-20T21:37:40.211Z,43.85
2019-01-20T21:40:11.207Z,45.67
2019-01-20T21:42:39.578Z,46.92
2019-01-20T21:45:10.313Z,44.58
2019-01-20T21:47:38.578Z,45.05
2019-01-20T21:50:15.961Z,48.40
2019-01-20T21:52:44.392Z,48.30
2019-01-20T21:55:12.670Z,46.55
2019-01-20T21:57:40.909Z,46.35
2019-01-20T22:00:14.846Z,46.42
2019-01-20T22:02:43.124Z,47.98
2019-01-20T22:05:11.690Z,45.55
2019-01-20T22:07:39.929Z,44.60
2019-01-20T22:10:16.699Z,48.33
2019-01-20T22:12:44.942Z,43.78
2019-01-20T22:15:13.522Z,49.60
2019-01-20T22:17:41.874Z,45.88
2019-01-20T22:20:21.418Z,49.70
2019-01-20T22:22:50.125Z,51.13
2019-01-20T22:25:18.371Z,52.35
2019-01-20T22:27:46.613Z,48.10
2019-01-20T22:30:20.455Z,51.92
2019-01-20T22:32:48.719Z,47.73
2019-01-20T22:35:17.082Z,47.53
2019-01-20T22:37:45.321Z,47.58
2019-01-20T22:40:15.527Z,44.48
2019-01-20T22:42:43.787Z,48.02
2019-01-20T22:45:14.789Z,48.75
2019-01-20T22:47:43.042Z,50.58
2019-01-20T22:50:13.072Z,44.65
2019-01-20T22:52:41.539Z,48.13
2019-01-20T22:55:12.547Z,53.50
2019-01-20T22:57:40.799Z,47.53
2019-01-20T23:00:28.989Z,45.28
2019-01-20T23:02:57.275Z,40.78
2019-01-20T23:05:25.532Z,43.63
2019-01-20T23:07:53.794Z,43.35
2019-01-20T23:10:22.045Z,44.20
2019-01-20T23:12:50.328Z,45.67
2019-01-20T23:15:18.576Z,46.80
2019-01-20T23:17:46.816Z,43.30
2019-01-20T23:20:18.251Z,43.15
2019-01-20T23:22:46.557Z,42.90
2019-01-20T23:25:14.806Z,45.28
2019-01-20T23:27:43.176Z,43.55
2019-01-20T23:30:13.914Z,48.55
2019-01-20T23:32:42.159Z,45.45
2019-01-20T23:35:10.427Z,46.33
2019-01-20T23:37:38.686Z,41.73
2019-01-20T23:40:11.992Z,42.43
2019-01-20T23:42:40.292Z,42.78
2019-01-20T23:45:10.616Z,45.12
2019-01-20T23:47:38.879Z,43.55
2019-01-20T23:50:15.625Z,43.63
2019-01-20T23:52:43.976Z,44.27
2019-01-20T23:55:12.676Z,44.15
2019-01-20T23:57:40.964Z,44.53
